sensor_id;sensor_type;location;lat;lon;timestamp;P1;durP1;ratioP1;P2;durP2;ratioP2
2784;SDS011;57944;48.722;9.316;2022-08-21T00:00:23;11.07;;;9.00;;
2784;SDS011;57944;48.722;9.316;2022-08-21T00:02:59;13.67;;;8.40;;
2784;SDS011;57944;48.722;9.316;2022-08-21T00:05:38;13.10;;;8.50;;
2784;SDS011;57944;48.722;9.316;2022-08-21T00:08:11;12.17;;;9.00;;
2784;SDS011;57944;48.722;9.316;2022-08-21T00:10:42;15.90;;;9.50;;
2784;SDS011;57944;48.722;9.316;2022-08-21T00:13:13;15.30;;;8.67;;
2784;SDS011;57944;48.722;9.316;2022-08-21T00:15:46;11.60;;;9.20;;
2784;SDS011;57944;48.722;9.316;2022-08-21T00:18:18;13.13;;;9.43;;
2784;SDS011;57944;48.722;9.316;2022-08-21T00:20:51;13.83;;;8.30;;
2784;SDS011;57944;48.722;9.316;2022-08-21T00:23:22;13.47;;;8.77;;
2784;SDS011;57944;48.722;9.316;2022-08-21T00:25:52;11.93;;;8.50;;
2784;SDS011;57944;48.722;9.316;2022-08-21T00:28:22;12.30;;;8.83;;
2784;SDS011;57944;48.722;9.316;2022-08-21T00:30:52;14.50;;;9.37;;
2784;SDS011;57944;48.722;9.316;2022-08-21T00:33:23;13.83;;;9.43;;
2784;SDS011;57944;48.722;9.316;2022-08-21T00:35:56;15.10;;;10.33;;
2784;SDS011;57944;48.722;9.316;2022-08-21T00:38:26;13.17;;;9.30;;
2784;SDS011;57944;48.722;9.316;2022-08-21T00:40:58;17.30;;;11.43;;
2784;SDS011;57944;48.722;9.316;2022-08-21T00:43:52;17.20;;;9.97;;
2784;SDS011;57944;48.722;9.316;2022-08-21T00:46:24;17.73;;;10.10;;
2784;SDS011;57944;48.722;9.316;2022-08-21T00:48:54;16.80;;;8.83;;
2784;SDS011;57944;48.722;9.316;2022-08-21T00:51:28;14.80;;;9.73;;
2784;SDS011;57944;48.722;9.316;2022-08-21T00:54:06;12.23;;;8.93;;
2784;SDS011;57944;48.722;9.316;2022-08-21T00:56:44;12.17;;;8.93;;
2784;SDS011;57944;48.722;9.316;2022-08-21T00:59:20;15.13;;;9.37;;
2784;SDS011;57944;48.722;9.316;2022-08-21T01:01:52;16.63;;;9.23;;
2784;SDS011;57944;48.722;9.316;2022-08-21T01:04:23;13.87;;;9.33;;
2784;SDS011;57944;48.722;9.316;2022-08-21T01:06:56;19.07;;;10.50;;
2784;SDS011;57944;48.722;9.316;2022-08-21T01:09:26;13.60;;;9.40;;
2784;SDS011;57944;48.722;9.316;2022-08-21T01:11:56;15.50;;;9.50;;
2784;SDS011;57944;48.722;9.316;2022-08-21T01:14:26;17.27;;;10.37;;
2784;SDS011;57944;48.722;9.316;2022-08-21T01:16:58;18.43;;;11.80;;
2784;SDS011;57944;48.722;9.316;2022-08-21T01:19:30;18.50;;;9.03;;
2784;SDS011;57944;48.722;9.316;2022-08-21T01:22:04;17.53;;;9.10;;
2784;SDS011;57944;48.722;9.316;2022-08-21T01:24:36;13.33;;;10.40;;
2784;SDS011;57944;48.722;9.316;2022-08-21T01:27:06;16.90;;;9.40;;
2784;SDS011;57944;48.722;9.316;2022-08-21T01:29:38;18.80;;;9.73;;
2784;SDS011;57944;48.722;9.316;2022-08-21T01:32:15;15.20;;;9.23;;
2784;SDS011;57944;48.722;9.316;2022-08-21T01:34:48;14.80;;;9.30;;
2784;SDS011;57944;48.722;9.316;2022-08-21T01:37:23;14.20;;;9.17;;
2784;SDS011;57944;48.722;9.316;2022-08-21T01:39:54;18.90;;;9.60;;
2784;SDS011;57944;48.722;9.316;2022-08-21T01:42:24;14.60;;;8.90;;
2784;SDS011;57944;48.722;9.316;2022-08-21T01:44:55;18.30;;;10.10;;
2784;SDS011;57944;48.722;9.316;2022-08-21T01:47:25;19.07;;;9.33;;
2784;SDS011;57944;48.722;9.316;2022-08-21T01:49:55;18.37;;;10.67;;
2784;SDS011;57944;48.722;9.316;2022-08-21T01:52:28;17.20;;;10.07;;
2784;SDS011;57944;48.722;9.316;2022-08-21T01:54:58;15.63;;;9.80;;
2784;SDS011;57944;48.722;9.316;2022-08-21T01:57:28;14.00;;;10.47;;
2784;SDS011;57944;48.722;9.316;2022-08-21T01:59:59;15.23;;;10.27;;
2784;SDS011;57944;48.722;9.316;2022-08-21T02:02:37;17.53;;;9.70;;
2784;SDS011;57944;48.722;9.316;2022-08-21T02:05:08;15.27;;;9.80;;
2784;SDS011;57944;48.722;9.316;2022-08-21T02:07:45;12.73;;;9.20;;
2784;SDS011;57944;48.722;9.316;2022-08-21T02:10:18;14.20;;;10.53;;
2784;SDS011;57944;48.722;9.316;2022-08-21T02:12:52;19.47;;;10.77;;
2784;SDS011;57944;48.722;9.316;2022-08-21T02:15:23;13.30;;;9.27;;
2784;SDS011;57944;48.722;9.316;2022-08-21T02:17:54;19.70;;;10.50;;
2784;SDS011;57944;48.722;9.316;2022-08-21T02:20:27;13.53;;;8.80;;
2784;SDS011;57944;48.722;9.316;2022-08-21T02:23:04;15.83;;;10.57;;
2784;SDS011;57944;48.722;9.316;2022-08-21T02:25:36;13.40;;;10.70;;
2784;SDS011;57944;48.722;9.316;2022-08-21T02:28:08;11.97;;;9.00;;
2784;SDS011;57944;48.722;9.316;2022-08-21T02:30:46;14.30;;;10.47;;
2784;SDS011;57944;48.722;9.316;2022-08-21T02:33:18;18.17;;;9.70;;
2784;SDS011;57944;48.722;9.316;2022-08-21T02:35:48;14.43;;;9.17;;
2784;SDS011;57944;48.722;9.316;2022-08-21T02:38:22;15.53;;;10.93;;
2784;SDS011;57944;48.722;9.316;2022-08-21T02:40:56;18.10;;;10.50;;
2784;SDS011;57944;48.722;9.316;2022-08-21T02:43:27;13.13;;;9.47;;
2784;SDS011;57944;48.722;9.316;2022-08-21T02:45:57;13.53;;;9.40;;
2784;SDS011;57944;48.722;9.316;2022-08-21T02:48:29;18.40;;;10.20;;
2784;SDS011;57944;48.722;9.316;2022-08-21T02:51:04;12.70;;;9.00;;
2784;SDS011;57944;48.722;9.316;2022-08-21T02:53:40;11.10;;;9.10;;
2784;SDS011;57944;48.722;9.316;2022-08-21T02:56:12;13.90;;;9.20;;
2784;SDS011;57944;48.722;9.316;2022-08-21T02:58:46;16.80;;;10.63;;
2784;SDS011;57944;48.722;9.316;2022-08-21T03:01:19;12.03;;;8.60;;
2784;SDS011;57944;48.722;9.316;2022-08-21T03:03:50;17.03;;;10.70;;
2784;SDS011;57944;48.722;9.316;2022-08-21T03:06:21;16.90;;;10.83;;
2784;SDS011;57944;48.722;9.316;2022-08-21T03:08:54;17.70;;;10.13;;
2784;SDS011;57944;48.722;9.316;2022-08-21T03:11:24;14.03;;;8.60;;
2784;SDS011;57944;48.722;9.316;2022-08-21T03:13:54;11.07;;;8.93;;
2784;SDS011;57944;48.722;9.316;2022-08-21T03:16:24;13.30;;;9.43;;
2784;SDS011;57944;48.722;9.316;2022-08-21T03:19:00;15.50;;;10.80;;
2784;SDS011;57944;48.722;9.316;2022-08-21T03:21:31;16.53;;;9.93;;
2784;SDS011;57944;48.722;9.316;2022-08-21T03:24:04;14.70;;;10.23;;
2784;SDS011;57944;48.722;9.316;2022-08-21T03:26:35;18.30;;;11.20;;
2784;SDS011;57944;48.722;9.316;2022-08-21T03:29:06;16.00;;;11.47;;
2784;SDS011;57944;48.722;9.316;2022-08-21T03:31:36;13.47;;;10.30;;
2784;SDS011;57944;48.722;9.316;2022-08-21T03:34:06;15.10;;;10.83;;
2784;SDS011;57944;48.722;9.316;2022-08-21T03:36:37;14.77;;;11.30;;
2784;SDS011;57944;48.722;9.316;2022-08-21T03:39:09;17.53;;;10.40;;
2784;SDS011;57944;48.722;9.316;2022-08-21T03:41:39;14.40;;;10.60;;
2784;SDS011;57944;48.722;9.316;2022-08-21T03:44:10;12.43;;;9.77;;
2784;SDS011;57944;48.722;9.316;2022-08-21T03:46:40;17.07;;;10.77;;
2784;SDS011;57944;48.722;9.316;2022-08-21T03:49:10;13.43;;;9.10;;
2784;SDS011;57944;48.722;9.316;2022-08-21T03:51:40;19.67;;;11.20;;
2784;SDS011;57944;48.722;9.316;2022-08-21T03:54:12;17.33;;;11.90;;
2784;SDS011;57944;48.722;9.316;2022-08-21T03:56:43;16.10;;;9.50;;
2784;SDS011;57944;48.722;9.316;2022-08-21T03:59:13;13.53;;;9.30;;
2784;SDS011;57944;48.722;9.316;2022-08-21T04:01:50;22.47;;;9.87;;
2784;SDS011;57944;48.722;9.316;2022-08-21T04:04:22;14.83;;;9.37;;
2784;SDS011;57944;48.722;9.316;2022-08-21T04:06:53;14.80;;;10.67;;
2784;SDS011;57944;48.722;9.316;2022-08-21T04:09:26;13.83;;;9.93;;
2784;SDS011;57944;48.722;9.316;2022-08-21T04:11:56;18.87;;;10.60;;
2784;SDS011;57944;48.722;9.316;2022-08-21T04:14:29;16.73;;;9.80;;
2784;SDS011;57944;48.722;9.316;2022-08-21T04:16:59;15.37;;;9.60;;
2784;SDS011;57944;48.722;9.316;2022-08-21T04:19:29;16.77;;;10.10;;
2784;SDS011;57944;48.722;9.316;2022-08-21T04:21:59;12.83;;;9.53;;
2784;SDS011;57944;48.722;9.316;2022-08-21T04:24:32;15.50;;;9.37;;
2784;SDS011;57944;48.722;9.316;2022-08-21T04:27:02;17.00;;;9.90;;
2784;SDS011;57944;48.722;9.316;2022-08-21T04:29:32;14.70;;;9.60;;
2784;SDS011;57944;48.722;9.316;2022-08-21T04:32:05;18.30;;;9.80;;
2784;SDS011;57944;48.722;9.316;2022-08-21T04:34:35;25.40;;;13.00;;
2784;SDS011;57944;48.722;9.316;2022-08-21T04:37:05;13.80;;;9.73;;
2784;SDS011;57944;48.722;9.316;2022-08-21T04:39:38;15.47;;;11.43;;
2784;SDS011;57944;48.722;9.316;2022-08-21T04:42:08;18.77;;;11.13;;
2784;SDS011;57944;48.722;9.316;2022-08-21T04:44:38;18.07;;;11.93;;
2784;SDS011;57944;48.722;9.316;2022-08-21T04:47:08;15.40;;;9.93;;
2784;SDS011;57944;48.722;9.316;2022-08-21T04:49:38;33.10;;;12.80;;
2784;SDS011;57944;48.722;9.316;2022-08-21T04:52:08;24.80;;;12.20;;
2784;SDS011;57944;48.722;9.316;2022-08-21T04:54:42;13.60;;;10.47;;
2784;SDS011;57944;48.722;9.316;2022-08-21T04:57:20;14.50;;;10.63;;
2784;SDS011;57944;48.722;9.316;2022-08-21T05:00:13;14.90;;;11.53;;
2784;SDS011;57944;48.722;9.316;2022-08-21T05:02:45;17.10;;;12.67;;
2784;SDS011;57944;48.722;9.316;2022-08-21T05:05:20;24.53;;;14.30;;
2784;SDS011;57944;48.722;9.316;2022-08-21T05:07:51;17.77;;;12.37;;
2784;SDS011;57944;48.722;9.316;2022-08-21T05:10:25;23.63;;;14.53;;
2784;SDS011;57944;48.722;9.316;2022-08-21T05:12:57;19.07;;;13.10;;
2784;SDS011;57944;48.722;9.316;2022-08-21T05:15:29;18.37;;;14.47;;
2784;SDS011;57944;48.722;9.316;2022-08-21T05:17:59;17.13;;;12.20;;
2784;SDS011;57944;48.722;9.316;2022-08-21T05:20:29;17.23;;;12.80;;
2784;SDS011;57944;48.722;9.316;2022-08-21T05:23:00;22.20;;;11.93;;
2784;SDS011;57944;48.722;9.316;2022-08-21T05:25:39;15.57;;;11.47;;
2784;SDS011;57944;48.722;9.316;2022-08-21T05:28:11;18.17;;;12.30;;
2784;SDS011;57944;48.722;9.316;2022-08-21T05:30:42;11.13;;;9.87;;
2784;SDS011;57944;48.722;9.316;2022-08-21T05:33:12;12.70;;;9.20;;
2784;SDS011;57944;48.722;9.316;2022-08-21T05:35:42;11.83;;;7.90;;
2784;SDS011;57944;48.722;9.316;2022-08-21T05:38:13;12.80;;;7.07;;
2784;SDS011;57944;48.722;9.316;2022-08-21T05:40:46;7.97;;;6.83;;
2784;SDS011;57944;48.722;9.316;2022-08-21T05:43:16;8.13;;;6.60;;
2784;SDS011;57944;48.722;9.316;2022-08-21T05:45:46;6.67;;;5.70;;
2784;SDS011;57944;48.722;9.316;2022-08-21T05:48:17;10.60;;;5.73;;
2784;SDS011;57944;48.722;9.316;2022-08-21T05:50:52;8.33;;;5.77;;
2784;SDS011;57944;48.722;9.316;2022-08-21T05:53:23;6.20;;;4.60;;
2784;SDS011;57944;48.722;9.316;2022-08-21T05:55:56;6.43;;;5.13;;
2784;SDS011;57944;48.722;9.316;2022-08-21T05:58:26;5.70;;;5.10;;
2784;SDS011;57944;48.722;9.316;2022-08-21T06:00:56;8.00;;;5.13;;
2784;SDS011;57944;48.722;9.316;2022-08-21T06:03:28;7.37;;;4.90;;
2784;SDS011;57944;48.722;9.316;2022-08-21T06:06:01;8.13;;;4.97;;
2784;SDS011;57944;48.722;9.316;2022-08-21T06:08:32;6.87;;;4.53;;
2784;SDS011;57944;48.722;9.316;2022-08-21T06:11:05;7.07;;;5.10;;
2784;SDS011;57944;48.722;9.316;2022-08-21T06:13:37;5.13;;;4.20;;
2784;SDS011;57944;48.722;9.316;2022-08-21T06:16:09;10.33;;;5.77;;
2784;SDS011;57944;48.722;9.316;2022-08-21T06:18:43;16.87;;;5.40;;
2784;SDS011;57944;48.722;9.316;2022-08-21T06:21:14;4.83;;;4.30;;
2784;SDS011;57944;48.722;9.316;2022-08-21T06:23:45;8.23;;;4.17;;
2784;SDS011;57944;48.722;9.316;2022-08-21T06:26:17;14.03;;;5.30;;
2784;SDS011;57944;48.722;9.316;2022-08-21T06:28:48;5.33;;;4.30;;
2784;SDS011;57944;48.722;9.316;2022-08-21T06:31:20;6.20;;;4.57;;
2784;SDS011;57944;48.722;9.316;2022-08-21T06:33:53;7.90;;;5.00;;
2784;SDS011;57944;48.722;9.316;2022-08-21T06:36:24;6.60;;;4.40;;
2784;SDS011;57944;48.722;9.316;2022-08-21T06:38:54;5.60;;;4.47;;
2784;SDS011;57944;48.722;9.316;2022-08-21T06:41:28;8.77;;;4.00;;
2784;SDS011;57944;48.722;9.316;2022-08-21T06:44:04;5.70;;;3.93;;
2784;SDS011;57944;48.722;9.316;2022-08-21T06:46:34;6.63;;;4.67;;
2784;SDS011;57944;48.722;9.316;2022-08-21T06:49:05;9.00;;;4.93;;
2784;SDS011;57944;48.722;9.316;2022-08-21T06:51:46;5.60;;;4.40;;
2784;SDS011;57944;48.722;9.316;2022-08-21T06:54:16;11.27;;;4.37;;
2784;SDS011;57944;48.722;9.316;2022-08-21T06:56:49;9.60;;;4.10;;
2784;SDS011;57944;48.722;9.316;2022-08-21T06:59:19;9.73;;;4.53;;
2784;SDS011;57944;48.722;9.316;2022-08-21T07:01:49;14.20;;;4.07;;
2784;SDS011;57944;48.722;9.316;2022-08-21T07:04:19;6.97;;;4.37;;
2784;SDS011;57944;48.722;9.316;2022-08-21T07:06:49;5.57;;;4.30;;
2784;SDS011;57944;48.722;9.316;2022-08-21T07:09:19;5.27;;;4.27;;
2784;SDS011;57944;48.722;9.316;2022-08-21T07:11:53;7.53;;;4.60;;
2784;SDS011;57944;48.722;9.316;2022-08-21T07:14:25;5.83;;;4.63;;
2784;SDS011;57944;48.722;9.316;2022-08-21T07:16:55;4.80;;;3.53;;
2784;SDS011;57944;48.722;9.316;2022-08-21T07:19:25;5.13;;;4.50;;
2784;SDS011;57944;48.722;9.316;2022-08-21T07:21:56;6.80;;;4.50;;
2784;SDS011;57944;48.722;9.316;2022-08-21T07:24:30;6.70;;;4.13;;
2784;SDS011;57944;48.722;9.316;2022-08-21T07:27:03;11.07;;;5.20;;
2784;SDS011;57944;48.722;9.316;2022-08-21T07:29:35;11.10;;;5.07;;
2784;SDS011;57944;48.722;9.316;2022-08-21T07:32:05;12.40;;;4.70;;
2784;SDS011;57944;48.722;9.316;2022-08-21T07:34:35;5.43;;;4.00;;
2784;SDS011;57944;48.722;9.316;2022-08-21T07:37:05;5.10;;;3.73;;
2784;SDS011;57944;48.722;9.316;2022-08-21T07:39:36;5.73;;;3.77;;
2784;SDS011;57944;48.722;9.316;2022-08-21T07:42:08;8.50;;;3.43;;
2784;SDS011;57944;48.722;9.316;2022-08-21T07:44:38;16.33;;;5.00;;
2784;SDS011;57944;48.722;9.316;2022-08-21T07:47:09;6.77;;;4.57;;
2784;SDS011;57944;48.722;9.316;2022-08-21T07:49:39;5.77;;;4.17;;
2784;SDS011;57944;48.722;9.316;2022-08-21T07:52:09;5.80;;;3.57;;
2784;SDS011;57944;48.722;9.316;2022-08-21T07:54:39;5.20;;;4.10;;
2784;SDS011;57944;48.722;9.316;2022-08-21T07:57:11;5.67;;;3.57;;
2784;SDS011;57944;48.722;9.316;2022-08-21T07:59:46;6.23;;;4.07;;
2784;SDS011;57944;48.722;9.316;2022-08-21T08:02:21;6.90;;;4.63;;
2784;SDS011;57944;48.722;9.316;2022-08-21T08:04:53;8.53;;;5.60;;
2784;SDS011;57944;48.722;9.316;2022-08-21T08:07:27;17.00;;;5.60;;
2784;SDS011;57944;48.722;9.316;2022-08-21T08:09:58;8.80;;;6.10;;
2784;SDS011;57944;48.722;9.316;2022-08-21T08:12:30;8.40;;;5.10;;
2784;SDS011;57944;48.722;9.316;2022-08-21T08:15:00;12.50;;;5.43;;
2784;SDS011;57944;48.722;9.316;2022-08-21T08:17:36;5.63;;;4.37;;
2784;SDS011;57944;48.722;9.316;2022-08-21T08:20:07;5.00;;;3.50;;
2784;SDS011;57944;48.722;9.316;2022-08-21T08:22:40;7.40;;;5.20;;
2784;SDS011;57944;48.722;9.316;2022-08-21T08:25:16;8.33;;;5.70;;
2784;SDS011;57944;48.722;9.316;2022-08-21T08:27:51;7.70;;;5.93;;
2784;SDS011;57944;48.722;9.316;2022-08-21T08:30:22;9.30;;;5.10;;
2784;SDS011;57944;48.722;9.316;2022-08-21T08:32:58;8.43;;;5.20;;
2784;SDS011;57944;48.722;9.316;2022-08-21T08:35:28;8.07;;;5.07;;
2784;SDS011;57944;48.722;9.316;2022-08-21T08:37:58;8.70;;;5.60;;
2784;SDS011;57944;48.722;9.316;2022-08-21T08:40:31;12.77;;;6.83;;
2784;SDS011;57944;48.722;9.316;2022-08-21T08:43:11;9.50;;;4.53;;
2784;SDS011;57944;48.722;9.316;2022-08-21T08:45:42;5.37;;;4.13;;
2784;SDS011;57944;48.722;9.316;2022-08-21T08:48:21;7.60;;;4.90;;
2784;SDS011;57944;48.722;9.316;2022-08-21T08:51:09;9.13;;;5.50;;
2784;SDS011;57944;48.722;9.316;2022-08-21T08:53:52;8.07;;;5.70;;
2784;SDS011;57944;48.722;9.316;2022-08-21T08:56:29;7.43;;;5.07;;
2784;SDS011;57944;48.722;9.316;2022-08-21T08:59:05;7.30;;;5.80;;
2784;SDS011;57944;48.722;9.316;2022-08-21T09:01:44;8.10;;;6.20;;
2784;SDS011;57944;48.722;9.316;2022-08-21T09:04:16;9.97;;;6.23;;
2784;SDS011;57944;48.722;9.316;2022-08-21T09:07:00;12.40;;;6.40;;
2784;SDS011;57944;48.722;9.316;2022-08-21T09:09:46;9.43;;;6.10;;
2784;SDS011;57944;48.722;9.316;2022-08-21T09:12:33;7.97;;;5.90;;
2784;SDS011;57944;48.722;9.316;2022-08-21T09:15:19;8.60;;;5.77;;
2784;SDS011;57944;48.722;9.316;2022-08-21T09:18:04;7.03;;;5.43;;
2784;SDS011;57944;48.722;9.316;2022-08-21T09:20:49;8.53;;;6.40;;
2784;SDS011;57944;48.722;9.316;2022-08-21T09:23:29;12.80;;;5.80;;
2784;SDS011;57944;48.722;9.316;2022-08-21T09:26:12;7.03;;;5.07;;
2784;SDS011;57944;48.722;9.316;2022-08-21T09:28:45;8.00;;;4.73;;
2784;SDS011;57944;48.722;9.316;2022-08-21T09:31:25;8.43;;;5.20;;
2784;SDS011;57944;48.722;9.316;2022-08-21T09:33:58;8.83;;;5.40;;
2784;SDS011;57944;48.722;9.316;2022-08-21T09:36:37;8.20;;;4.70;;
2784;SDS011;57944;48.722;9.316;2022-08-21T09:39:12;8.57;;;5.33;;
2784;SDS011;57944;48.722;9.316;2022-08-21T09:41:56;8.83;;;5.40;;
2784;SDS011;57944;48.722;9.316;2022-08-21T09:44:30;10.07;;;5.50;;
2784;SDS011;57944;48.722;9.316;2022-08-21T09:47:09;11.83;;;5.20;;
2784;SDS011;57944;48.722;9.316;2022-08-21T09:49:43;9.73;;;5.00;;
2784;SDS011;57944;48.722;9.316;2022-08-21T09:52:16;7.60;;;4.37;;
2784;SDS011;57944;48.722;9.316;2022-08-21T09:54:50;8.20;;;4.93;;
2784;SDS011;57944;48.722;9.316;2022-08-21T09:57:24;7.93;;;5.00;;
2784;SDS011;57944;48.722;9.316;2022-08-21T10:00:19;11.30;;;6.70;;
2784;SDS011;57944;48.722;9.316;2022-08-21T10:03:09;8.00;;;4.87;;
2784;SDS011;57944;48.722;9.316;2022-08-21T10:05:52;7.10;;;4.57;;
2784;SDS011;57944;48.722;9.316;2022-08-21T10:08:29;8.37;;;5.20;;
2784;SDS011;57944;48.722;9.316;2022-08-21T10:11:02;9.53;;;4.53;;
2784;SDS011;57944;48.722;9.316;2022-08-21T10:13:43;10.20;;;5.50;;
2784;SDS011;57944;48.722;9.316;2022-08-21T10:16:27;6.27;;;4.17;;
2784;SDS011;57944;48.722;9.316;2022-08-21T10:19:19;9.83;;;5.80;;
2784;SDS011;57944;48.722;9.316;2022-08-21T10:22:03;8.53;;;5.10;;
2784;SDS011;57944;48.722;9.316;2022-08-21T10:24:52;8.63;;;5.10;;
2784;SDS011;57944;48.722;9.316;2022-08-21T10:27:36;8.67;;;4.83;;
2784;SDS011;57944;48.722;9.316;2022-08-21T10:30:17;10.87;;;4.80;;
2784;SDS011;57944;48.722;9.316;2022-08-21T10:36:05;8.73;;;5.30;;
2784;SDS011;57944;48.722;9.316;2022-08-21T10:38:52;9.70;;;5.10;;
2784;SDS011;57944;48.722;9.316;2022-08-21T10:42:07;8.77;;;5.20;;
2784;SDS011;57944;48.722;9.316;2022-08-21T10:44:57;11.03;;;4.70;;
2784;SDS011;57944;48.722;9.316;2022-08-21T10:47:41;9.20;;;5.50;;
2784;SDS011;57944;48.722;9.316;2022-08-21T10:50:25;6.37;;;4.50;;
2784;SDS011;57944;48.722;9.316;2022-08-21T10:53:15;8.00;;;4.77;;
2784;SDS011;57944;48.722;9.316;2022-08-21T10:56:13;11.50;;;5.03;;
2784;SDS011;57944;48.722;9.316;2022-08-21T10:58:56;8.60;;;5.20;;
2784;SDS011;57944;48.722;9.316;2022-08-21T11:01:47;7.60;;;5.37;;
2784;SDS011;57944;48.722;9.316;2022-08-21T11:04:24;9.37;;;5.80;;
2784;SDS011;57944;48.722;9.316;2022-08-21T11:07:16;6.87;;;4.57;;
2784;SDS011;57944;48.722;9.316;2022-08-21T11:10:04;7.03;;;4.50;;
2784;SDS011;57944;48.722;9.316;2022-08-21T11:12:46;9.20;;;5.40;;
2784;SDS011;57944;48.722;9.316;2022-08-21T11:15:31;10.10;;;5.30;;
2784;SDS011;57944;48.722;9.316;2022-08-21T11:18:15;9.83;;;5.13;;
2784;SDS011;57944;48.722;9.316;2022-08-21T11:20:57;9.97;;;5.23;;
2784;SDS011;57944;48.722;9.316;2022-08-21T11:23:45;11.60;;;5.80;;
2784;SDS011;57944;48.722;9.316;2022-08-21T11:26:25;8.23;;;5.20;;
2784;SDS011;57944;48.722;9.316;2022-08-21T11:29:04;7.60;;;5.10;;
2784;SDS011;57944;48.722;9.316;2022-08-21T11:31:47;7.50;;;5.13;;
2784;SDS011;57944;48.722;9.316;2022-08-21T11:34:34;8.53;;;4.70;;
2784;SDS011;57944;48.722;9.316;2022-08-21T11:37:27;6.87;;;5.83;;
2784;SDS011;57944;48.722;9.316;2022-08-21T11:40:19;9.40;;;5.50;;
2784;SDS011;57944;48.722;9.316;2022-08-21T11:43:16;9.77;;;5.60;;
2784;SDS011;57944;48.722;9.316;2022-08-21T11:46:00;7.57;;;4.23;;
2784;SDS011;57944;48.722;9.316;2022-08-21T11:48:46;7.67;;;5.20;;
2784;SDS011;57944;48.722;9.316;2022-08-21T11:51:32;12.37;;;5.33;;
2784;SDS011;57944;48.722;9.316;2022-08-21T11:54:22;6.03;;;4.93;;
2784;SDS011;57944;48.722;9.316;2022-08-21T11:56:59;8.53;;;4.70;;
2784;SDS011;57944;48.722;9.316;2022-08-21T11:59:39;6.83;;;5.00;;
2784;SDS011;57944;48.722;9.316;2022-08-21T12:02:17;12.80;;;4.43;;
2784;SDS011;57944;48.722;9.316;2022-08-21T12:04:54;8.60;;;4.60;;
2784;SDS011;57944;48.722;9.316;2022-08-21T12:07:35;8.70;;;4.47;;
2784;SDS011;57944;48.722;9.316;2022-08-21T12:10:10;9.60;;;4.60;;
2784;SDS011;57944;48.722;9.316;2022-08-21T12:12:47;7.40;;;4.53;;
2784;SDS011;57944;48.722;9.316;2022-08-21T12:18:06;7.87;;;4.20;;
2784;SDS011;57944;48.722;9.316;2022-08-21T12:20:58;6.60;;;4.37;;
2784;SDS011;57944;48.722;9.316;2022-08-21T12:23:33;7.13;;;4.73;;
2784;SDS011;57944;48.722;9.316;2022-08-21T12:26:25;10.30;;;5.20;;
2784;SDS011;57944;48.722;9.316;2022-08-21T12:29:05;7.93;;;4.83;;
2784;SDS011;57944;48.722;9.316;2022-08-21T12:31:53;6.87;;;5.10;;
2784;SDS011;57944;48.722;9.316;2022-08-21T12:34:32;8.63;;;5.00;;
2784;SDS011;57944;48.722;9.316;2022-08-21T12:37:10;7.37;;;4.70;;
2784;SDS011;57944;48.722;9.316;2022-08-21T12:39:51;6.53;;;4.50;;
2784;SDS011;57944;48.722;9.316;2022-08-21T12:42:24;6.50;;;4.67;;
2784;SDS011;57944;48.722;9.316;2022-08-21T12:45:11;10.03;;;4.40;;
2784;SDS011;57944;48.722;9.316;2022-08-21T12:47:51;9.83;;;4.03;;
2784;SDS011;57944;48.722;9.316;2022-08-21T12:50:31;8.60;;;4.80;;
2784;SDS011;57944;48.722;9.316;2022-08-21T12:53:07;10.13;;;3.77;;
2784;SDS011;57944;48.722;9.316;2022-08-21T12:55:49;8.67;;;5.00;;
2784;SDS011;57944;48.722;9.316;2022-08-21T12:58:20;8.47;;;4.40;;
2784;SDS011;57944;48.722;9.316;2022-08-21T13:00:55;6.20;;;4.77;;
2784;SDS011;57944;48.722;9.316;2022-08-21T13:03:36;6.97;;;3.77;;
2784;SDS011;57944;48.722;9.316;2022-08-21T13:06:07;7.20;;;4.03;;
2784;SDS011;57944;48.722;9.316;2022-08-21T13:08:45;4.40;;;2.93;;
2784;SDS011;57944;48.722;9.316;2022-08-21T13:11:24;6.30;;;3.97;;
2784;SDS011;57944;48.722;9.316;2022-08-21T13:13:59;6.00;;;3.30;;
2784;SDS011;57944;48.722;9.316;2022-08-21T13:16:32;5.80;;;3.70;;
2784;SDS011;57944;48.722;9.316;2022-08-21T13:19:06;10.03;;;4.17;;
2784;SDS011;57944;48.722;9.316;2022-08-21T13:21:49;5.50;;;3.37;;
2784;SDS011;57944;48.722;9.316;2022-08-21T13:24:22;4.93;;;3.70;;
2784;SDS011;57944;48.722;9.316;2022-08-21T13:27:18;5.10;;;3.43;;
2784;SDS011;57944;48.722;9.316;2022-08-21T13:32:42;6.20;;;3.80;;
2784;SDS011;57944;48.722;9.316;2022-08-21T13:35:21;6.10;;;3.60;;
2784;SDS011;57944;48.722;9.316;2022-08-21T13:37:55;5.90;;;3.47;;
2784;SDS011;57944;48.722;9.316;2022-08-21T13:40:28;4.30;;;3.40;;
2784;SDS011;57944;48.722;9.316;2022-08-21T13:43:01;4.97;;;3.30;;
2784;SDS011;57944;48.722;9.316;2022-08-21T13:45:32;7.30;;;3.53;;
2784;SDS011;57944;48.722;9.316;2022-08-21T13:48:02;7.63;;;4.10;;
2784;SDS011;57944;48.722;9.316;2022-08-21T13:50:36;5.57;;;3.67;;
2784;SDS011;57944;48.722;9.316;2022-08-21T13:53:19;8.77;;;4.33;;
2784;SDS011;57944;48.722;9.316;2022-08-21T13:55:53;5.23;;;3.60;;
2784;SDS011;57944;48.722;9.316;2022-08-21T13:58:26;5.90;;;3.63;;
2784;SDS011;57944;48.722;9.316;2022-08-21T14:01:00;7.27;;;3.53;;
2784;SDS011;57944;48.722;9.316;2022-08-21T14:03:33;6.43;;;3.40;;
2784;SDS011;57944;48.722;9.316;2022-08-21T14:06:13;4.70;;;3.60;;
2784;SDS011;57944;48.722;9.316;2022-08-21T14:08:48;5.13;;;3.40;;
2784;SDS011;57944;48.722;9.316;2022-08-21T14:11:22;8.10;;;3.60;;
2784;SDS011;57944;48.722;9.316;2022-08-21T14:13:56;5.20;;;3.67;;
2784;SDS011;57944;48.722;9.316;2022-08-21T14:16:41;8.77;;;4.43;;
2784;SDS011;57944;48.722;9.316;2022-08-21T14:19:18;4.70;;;3.30;;
2784;SDS011;57944;48.722;9.316;2022-08-21T14:21:54;6.53;;;3.90;;
2784;SDS011;57944;48.722;9.316;2022-08-21T14:24:26;8.10;;;3.57;;
2784;SDS011;57944;48.722;9.316;2022-08-21T14:27:02;6.00;;;3.13;;
2784;SDS011;57944;48.722;9.316;2022-08-21T14:29:35;7.77;;;4.47;;
2784;SDS011;57944;48.722;9.316;2022-08-21T14:32:10;6.40;;;3.40;;
2784;SDS011;57944;48.722;9.316;2022-08-21T14:34:50;5.67;;;3.73;;
2784;SDS011;57944;48.722;9.316;2022-08-21T14:37:27;5.40;;;3.63;;
2784;SDS011;57944;48.722;9.316;2022-08-21T14:39:57;4.80;;;3.63;;
2784;SDS011;57944;48.722;9.316;2022-08-21T14:42:28;6.33;;;4.23;;
2784;SDS011;57944;48.722;9.316;2022-08-21T14:45:05;6.73;;;4.00;;
2784;SDS011;57944;48.722;9.316;2022-08-21T14:47:49;6.23;;;4.20;;
2784;SDS011;57944;48.722;9.316;2022-08-21T14:50:19;6.43;;;4.27;;
2784;SDS011;57944;48.722;9.316;2022-08-21T14:52:55;5.60;;;3.70;;
2784;SDS011;57944;48.722;9.316;2022-08-21T14:55:26;5.80;;;3.73;;
2784;SDS011;57944;48.722;9.316;2022-08-21T14:57:56;6.17;;;3.67;;
2784;SDS011;57944;48.722;9.316;2022-08-21T15:00:26;5.07;;;4.10;;
2784;SDS011;57944;48.722;9.316;2022-08-21T15:03:01;9.30;;;4.67;;
2784;SDS011;57944;48.722;9.316;2022-08-21T15:05:31;6.37;;;4.13;;
2784;SDS011;57944;48.722;9.316;2022-08-21T15:08:04;6.10;;;4.10;;
2784;SDS011;57944;48.722;9.316;2022-08-21T15:10:34;8.90;;;3.87;;
2784;SDS011;57944;48.722;9.316;2022-08-21T15:13:25;5.47;;;3.57;;
2784;SDS011;57944;48.722;9.316;2022-08-21T15:15:55;4.77;;;3.53;;
2784;SDS011;57944;48.722;9.316;2022-08-21T15:18:26;6.07;;;3.47;;
2784;SDS011;57944;48.722;9.316;2022-08-21T15:20:58;6.87;;;3.60;;
2784;SDS011;57944;48.722;9.316;2022-08-21T15:23:31;7.20;;;4.13;;
2784;SDS011;57944;48.722;9.316;2022-08-21T15:26:05;6.63;;;4.50;;
2784;SDS011;57944;48.722;9.316;2022-08-21T15:28:35;8.70;;;3.73;;
2784;SDS011;57944;48.722;9.316;2022-08-21T15:31:05;5.80;;;2.90;;
2784;SDS011;57944;48.722;9.316;2022-08-21T15:33:36;6.10;;;3.70;;
2784;SDS011;57944;48.722;9.316;2022-08-21T15:36:06;9.70;;;3.90;;
2784;SDS011;57944;48.722;9.316;2022-08-21T15:38:39;5.80;;;4.23;;
2784;SDS011;57944;48.722;9.316;2022-08-21T15:41:10;8.40;;;3.77;;
2784;SDS011;57944;48.722;9.316;2022-08-21T15:43:42;7.33;;;4.10;;
2784;SDS011;57944;48.722;9.316;2022-08-21T15:46:17;5.57;;;4.07;;
2784;SDS011;57944;48.722;9.316;2022-08-21T15:48:49;6.57;;;3.63;;